Time;durP1;ratioP1;P1;durP2;ratioP2;P2;SDS_P1;SDS_P2;PMS_P1;PMS_P2;Temp;Humidity;BMP_temperature;BMP_pressure;BME280_temperature;BME280_humidity;BME280_pressure;Samples;Min_cycle;Max_cycle;Signal;HPM_P1;HPM_P2
2023/06/11 00:02:06;;;;;;;4.70;3.80;;;25.60;47.80;;;;;;5052848;28;20302;-67
2023/06/11 00:04:34;;;;;;;4.97;3.67;;;25.50;47.90;;;;;;5070208;28;20045;-67
2023/06/11 00:07:02;;;;;;;4.38;3.80;;;25.50;48.00;;;;;;5056385;28;20700;-68
2023/06/11 00:09:28;;;;;;;5.57;3.33;;;25.50;48.20;;;;;;5068097;28;20024;-67
2023/06/11 00:11:54;;;;;;;5.10;3.83;;;25.40;48.30;;;;;;5068948;28;20088;-69
2023/06/11 00:14:21;;;;;;;4.78;3.90;;;25.30;48.30;;;;;;5084980;28;20027;-68
2023/06/11 00:16:48;;;;;;;4.47;3.70;;;25.30;48.40;;;;;;5039092;28;20055;-68
2023/06/11 00:19:13;;;;;;;4.78;3.90;;;25.20;48.50;;;;;;5077991;28;20548;-68
2023/06/11 00:21:46;;;;;;;4.80;3.80;;;25.10;48.60;;;;;;5068361;28;20425;-67
2023/06/11 00:24:13;;;;;;;4.40;3.80;;;25.10;48.80;;;;;;5075559;28;21190;-68
2023/06/11 00:26:40;;;;;;;4.90;3.63;;;25.00;48.90;;;;;;5076569;28;20036;-68
2023/06/11 00:29:06;;;;;;;5.60;3.78;;;25.00;49.00;;;;;;5064649;28;20429;-68
2023/06/11 00:31:32;;;;;;;4.67;3.90;;;24.90;49.10;;;;;;5046174;28;20032;-67
2023/06/11 00:34:00;;;;;;;5.18;4.03;;;24.90;49.20;;;;;;5082345;28;20024;-68
2023/06/11 00:36:26;;;;;;;6.15;4.10;;;24.80;49.50;;;;;;5069714;28;20036;-67
2023/06/11 00:38:53;;;;;;;5.03;3.90;;;24.70;49.40;;;;;;5048291;28;20453;-68
2023/06/11 00:41:20;;;;;;;4.60;3.50;;;24.70;49.50;;;;;;5077375;28;20028;-67
2023/06/11 00:43:48;;;;;;;4.47;3.70;;;24.60;49.70;;;;;;5064311;28;20054;-68
2023/06/11 00:46:16;;;;;;;4.40;3.70;;;24.60;49.80;;;;;;5084877;28;20057;-68
2023/06/11 00:48:42;;;;;;;4.20;3.70;;;24.50;50.00;;;;;;5045493;28;20041;-68
2023/06/11 00:51:10;;;;;;;4.10;3.70;;;24.40;50.10;;;;;;5077128;28;20036;-68
2023/06/11 00:53:36;;;;;;;4.60;3.73;;;24.40;50.30;;;;;;5050720;28;20032;-67
2023/06/11 00:56:02;;;;;;;4.57;3.67;;;24.30;50.40;;;;;;5084670;28;20702;-68
2023/06/11 00:58:29;;;;;;;4.68;3.65;;;24.30;50.60;;;;;;5072395;28;20111;-68
2023/06/11 01:00:58;;;;;;;4.60;3.53;;;24.20;50.80;;;;;;5089062;28;20149;-68
2023/06/11 01:03:26;;;;;;;4.28;3.70;;;24.20;51.30;;;;;;5058129;28;20030;-67
2023/06/11 01:06:02;;;;;;;4.87;3.77;;;24.10;51.10;;;;;;5089900;28;20024;-69
2023/06/11 01:08:31;;;;;;;4.50;3.60;;;24.00;52.10;;;;;;5075127;28;20115;-67
2023/06/11 01:11:01;;;;;;;5.40;3.85;;;24.00;51.70;;;;;;5064300;28;20585;-68
2023/06/11 01:13:28;;;;;;;5.30;3.70;;;23.90;51.40;;;;;;5069329;28;20479;-67
2023/06/11 01:16:15;;;;;;;5.47;3.90;;;23.90;51.60;;;;;;5084342;28;20104;-68
2023/06/11 01:19:03;;;;;;;4.70;3.57;;;23.80;52.10;;;;;;5049207;28;20314;-68
2023/06/11 01:21:39;;;;;;;5.72;3.85;;;23.80;53.10;;;;;;5082644;28;20028;-67
2023/06/11 01:24:17;;;;;;;6.00;4.00;;;23.70;52.30;;;;;;5086345;28;20540;-69
2023/06/11 01:27:04;;;;;;;5.20;4.18;;;23.70;52.70;;;;;;5055805;28;20027;-68
2023/06/11 01:29:31;;;;;;;6.25;4.13;;;23.60;53.50;;;;;;5070982;28;20142;-67
2023/06/11 01:31:59;;;;;;;4.33;3.40;;;23.60;52.10;;;;;;5080009;28;20661;-68
2023/06/11 01:34:26;;;;;;;4.32;3.85;;;23.50;52.40;;;;;;5058895;28;20036;-68
2023/06/11 01:36:52;;;;;;;4.80;4.30;;;23.40;52.40;;;;;;5080116;28;20099;-67
2023/06/11 01:39:19;;;;;;;5.37;4.17;;;23.40;52.50;;;;;;5081336;28;20327;-68
2023/06/11 01:41:45;;;;;;;4.80;3.90;;;23.40;52.80;;;;;;5054876;28;20278;-68
2023/06/11 01:44:12;;;;;;;4.88;3.92;;;23.30;52.90;;;;;;5073437;28;20042;-68
2023/06/11 01:46:37;;;;;;;5.90;4.10;;;23.30;53.00;;;;;;5077570;28;20044;-67
2023/06/11 01:49:03;;;;;;;5.40;4.13;;;23.30;53.10;;;;;;5053352;28;20047;-69
2023/06/11 01:51:29;;;;;;;5.13;4.30;;;23.20;53.90;;;;;;5078240;28;20062;-67
2023/06/11 01:53:56;;;;;;;5.82;4.40;;;23.20;53.30;;;;;;5079615;28;20089;-68
2023/06/11 01:56:22;;;;;;;5.00;3.80;;;23.10;53.50;;;;;;5067466;28;20024;-67
2023/06/11 01:58:47;;;;;;;4.28;3.83;;;23.10;53.60;;;;;;5058030;28;20707;-68
2023/06/11 02:01:13;;;;;;;4.90;4.30;;;23.10;53.70;;;;;;5083127;28;20768;-68
2023/06/11 02:03:40;;;;;;;5.47;4.03;;;23.00;53.80;;;;;;5048541;28;20032;-67
2023/06/11 02:06:07;;;;;;;5.45;3.95;;;22.90;54.00;;;;;;5082001;28;20031;-68
2023/06/11 02:08:32;;;;;;;5.53;3.95;;;22.90;54.10;;;;;;5081136;28;20505;-67
2023/06/11 02:10:58;;;;;;;4.37;3.80;;;22.90;54.10;;;;;;5068967;28;20036;-68
2023/06/11 02:13:30;;;;;;;5.22;3.85;;;22.80;54.20;;;;;;5081694;28;20590;-67
2023/06/11 02:15:57;;;;;;;4.97;4.30;;;22.80;54.30;;;;;;5062876;28;20207;-68
2023/06/11 02:18:22;;;;;;;4.60;4.10;;;22.80;54.40;;;;;;5080566;28;20015;-67
2023/06/11 02:20:48;;;;;;;5.03;3.95;;;22.70;54.60;;;;;;5061353;28;20530;-69
2023/06/11 02:23:14;;;;;;;5.47;4.27;;;22.70;54.80;;;;;;5076511;28;20056;-68
2023/06/11 02:25:40;;;;;;;6.57;4.00;;;22.60;54.70;;;;;;5056016;28;20510;-68
2023/06/11 02:28:06;;;;;;;5.05;4.07;;;22.60;54.80;;;;;;5078948;28;20460;-68
2023/06/11 02:30:31;;;;;;;5.33;4.20;;;22.50;54.90;;;;;;5065777;28;20036;-67
2023/06/11 02:32:57;;;;;;;5.40;4.18;;;22.50;55.00;;;;;;5082744;28;20111;-68
2023/06/11 02:35:23;;;;;;;6.13;4.30;;;22.40;55.20;;;;;;5053421;28;20031;-68
2023/06/11 02:37:48;;;;;;;6.63;4.47;;;22.40;55.30;;;;;;5078345;28;20159;-68
2023/06/11 02:40:14;;;;;;;4.70;4.07;;;22.40;55.40;;;;;;5081478;28;20152;-68
2023/06/11 02:42:40;;;;;;;6.38;4.25;;;22.30;55.50;;;;;;5066907;28;20116;-68
2023/06/11 02:45:06;;;;;;;5.20;4.47;;;22.30;55.70;;;;;;5066216;28;20043;-67
2023/06/11 02:47:32;;;;;;;5.20;4.27;;;22.20;55.70;;;;;;5078485;28;20016;-67
2023/06/11 02:49:57;;;;;;;5.53;4.40;;;22.10;55.90;;;;;;5053272;28;20330;-68
2023/06/11 02:52:23;;;;;;;6.07;4.30;;;22.10;56.00;;;;;;5080429;28;20028;-67
2023/06/11 02:54:49;;;;;;;5.32;4.25;;;22.10;56.10;;;;;;5080041;28;20585;-68
2023/06/11 02:57:15;;;;;;;5.57;4.45;;;22.10;56.30;;;;;;5068215;28;20023;-68
2023/06/11 02:59:41;;;;;;;5.40;4.07;;;22.00;56.30;;;;;;5082429;28;20067;-68
2023/06/11 03:02:06;;;;;;;5.40;4.40;;;22.00;56.50;;;;;;5074663;28;20480;-68
2023/06/11 03:04:32;;;;;;;5.27;4.40;;;22.00;56.50;;;;;;5085826;28;20034;-67
2023/06/11 03:06:58;;;;;;;4.95;4.10;;;21.90;56.60;;;;;;5060088;28;20036;-68
2023/06/11 03:09:24;;;;;;;5.47;4.30;;;21.90;56.70;;;;;;5083473;28;20567;-67
2023/06/11 03:11:51;;;;;;;5.28;4.28;;;21.90;56.80;;;;;;5082153;28;20076;-68
2023/06/11 03:14:16;;;;;;;5.78;4.15;;;21.80;56.90;;;;;;5073483;28;20035;-68
2023/06/11 03:16:42;;;;;;;4.77;4.00;;;21.80;56.90;;;;;;5070347;28;20058;-67
2023/06/11 03:19:08;;;;;;;5.75;4.32;;;21.80;57.10;;;;;;5083103;28;20020;-67
2023/06/11 03:21:33;;;;;;;6.03;4.50;;;21.80;57.10;;;;;;5066075;28;20023;-68
2023/06/11 03:23:59;;;;;;;4.82;4.30;;;21.70;57.20;;;;;;5085638;28;20053;-67
2023/06/11 03:26:25;;;;;;;5.57;4.30;;;21.70;57.30;;;;;;5087210;28;20212;-68
2023/06/11 03:28:51;;;;;;;5.53;4.38;;;21.60;57.40;;;;;;5071238;28;20048;-68
2023/06/11 03:31:17;;;;;;;5.00;4.45;;;21.60;57.60;;;;;;5072796;28;20027;-68
2023/06/11 03:33:42;;;;;;;8.53;4.67;;;21.60;57.60;;;;;;5086070;28;20035;-68
2023/06/11 03:36:09;;;;;;;5.82;4.70;;;21.60;57.70;;;;;;5082223;28;20028;-67
2023/06/11 03:38:35;;;;;;;5.50;4.33;;;21.60;57.80;;;;;;5059991;28;20024;-68
2023/06/11 03:41:00;;;;;;;5.47;4.47;;;21.50;57.90;;;;;;5084180;28;20053;-67
2023/06/11 03:43:26;;;;;;;5.20;4.55;;;21.50;58.00;;;;;;5058437;28;20434;-68
2023/06/11 03:45:52;;;;;;;4.97;4.17;;;21.50;58.10;;;;;;5082320;28;20036;-67
2023/06/11 03:48:18;;;;;;;6.40;4.53;;;21.40;58.20;;;;;;5071647;28;20767;-68
2023/06/11 03:50:43;;;;;;;5.17;4.30;;;21.40;58.30;;;;;;5086691;28;20092;-68
2023/06/11 03:53:09;;;;;;;5.88;4.53;;;21.40;58.40;;;;;;5059224;28;20210;-67
2023/06/11 03:55:35;;;;;;;5.90;4.53;;;21.40;58.60;;;;;;5083117;28;20063;-68
2023/06/11 03:58:00;;;;;;;5.43;4.32;;;21.40;58.70;;;;;;5081276;28;20028;-67
2023/06/11 04:00:30;;;;;;;5.63;4.80;;;21.30;58.70;;;;;;5075198;28;20043;-67
2023/06/11 04:02:56;;;;;;;5.80;4.65;;;21.30;58.80;;;;;;5066767;28;20054;-67
2023/06/11 04:05:22;;;;;;;6.03;4.30;;;21.30;59.00;;;;;;5075555;28;20111;-67
2023/06/11 04:07:47;;;;;;;5.23;4.63;;;21.30;59.10;;;;;;5053020;28;20025;-68
2023/06/11 04:10:13;;;;;;;5.65;4.65;;;21.30;59.30;;;;;;5083228;27;20040;-68
2023/06/11 04:12:39;;;;;;;5.93;4.33;;;21.20;59.30;;;;;;5080381;28;20039;-67
2023/06/11 04:15:06;;;;;;;6.03;4.60;;;21.20;59.30;;;;;;5053557;28;20514;-67
2023/06/11 04:17:32;;;;;;;5.82;4.57;;;21.20;59.50;;;;;;5053530;28;20394;-67
2023/06/11 04:19:57;;;;;;;5.30;4.50;;;21.20;59.60;;;;;;5071296;28;20219;-67
2023/06/11 04:22:23;;;;;;;5.57;4.53;;;21.20;59.80;;;;;;5078352;28;20103;-68
2023/06/11 04:24:49;;;;;;;5.63;4.40;;;21.10;59.80;;;;;;5051852;28;20359;-68
2023/06/11 04:27:15;;;;;;;5.85;4.68;;;21.20;59.90;;;;;;5074541;28;20044;-68
2023/06/11 04:29:44;;;;;;;7.57;4.63;;;21.20;60.00;;;;;;5066751;28;20266;-67
2023/06/11 04:32:10;;;;;;;8.10;4.85;;;21.20;60.20;;;;;;5082392;28;20067;-67
2023/06/11 04:34:37;;;;;;;5.80;4.50;;;21.20;60.30;;;;;;5071574;28;20808;-67
2023/06/11 04:37:05;;;;;;;6.22;4.88;;;21.20;60.40;;;;;;5080064;28;20403;-67
2023/06/11 04:39:31;;;;;;;6.03;4.80;;;21.20;60.60;;;;;;5047312;28;20028;-67
2023/06/11 04:41:58;;;;;;;5.95;4.72;;;21.20;60.70;;;;;;5074453;28;20024;-67
2023/06/11 04:44:24;;;;;;;6.37;5.13;;;21.30;60.80;;;;;;5063029;28;20119;-68
2023/06/11 04:46:49;;;;;;;5.43;4.50;;;21.30;61.00;;;;;;5080422;28;20035;-67
2023/06/11 04:49:20;;;;;;;6.87;4.80;;;21.30;61.10;;;;;;5067213;28;20016;-67
2023/06/11 04:51:48;;;;;;;6.18;4.50;;;21.40;61.30;;;;;;5077934;28;20134;-67
2023/06/11 04:54:13;;;;;;;5.70;4.65;;;21.40;61.20;;;;;;5056919;28;21104;-68
2023/06/11 04:56:39;;;;;;;5.10;4.60;;;21.50;61.30;;;;;;5082816;28;20028;-67
2023/06/11 04:59:06;;;;;;;7.53;5.10;;;21.50;61.50;;;;;;5068867;28;20035;-67
2023/06/11 05:01:32;;;;;;;5.70;4.57;;;21.50;61.50;;;;;;5066619;28;20757;-67
2023/06/11 05:03:58;;;;;;;6.07;4.70;;;21.50;61.50;;;;;;5055409;28;20550;-68
2023/06/11 05:06:25;;;;;;;5.63;4.82;;;21.50;61.70;;;;;;5066088;28;20486;-67
2023/06/11 05:08:52;;;;;;;5.90;4.77;;;21.60;61.80;;;;;;5072230;28;20032;-68
2023/06/11 05:11:18;;;;;;;6.55;4.72;;;21.60;61.80;;;;;;5059428;28;20483;-67
2023/06/11 05:13:43;;;;;;;6.35;4.90;;;21.70;62.80;;;;;;5081171;28;20100;-67
2023/06/11 05:16:10;;;;;;;5.90;4.77;;;21.70;62.00;;;;;;5066429;28;20449;-67
2023/06/11 05:18:35;;;;;;;6.03;5.13;;;21.70;62.30;;;;;;5073609;28;20136;-67
2023/06/11 05:21:01;;;;;;;5.35;4.57;;;21.80;62.10;;;;;;5076480;28;20799;-68
2023/06/11 05:23:31;;;;;;;5.87;4.67;;;21.80;62.10;;;;;;5042922;28;20266;-67
2023/06/11 05:26:12;;;;;;;5.75;5.03;;;21.80;62.20;;;;;;5058805;28;20059;-68
2023/06/11 05:28:38;;;;;;;6.78;5.40;;;21.90;62.20;;;;;;5077941;28;20213;-68
2023/06/11 05:31:06;;;;;;;5.78;4.90;;;21.90;62.20;;;;;;5071530;28;20032;-68
2023/06/11 05:33:32;;;;;;;5.85;5.00;;;21.90;62.20;;;;;;5068883;28;20613;-67
2023/06/11 05:35:58;;;;;;;6.30;5.17;;;22.00;62.50;;;;;;5072657;28;20462;-67
2023/06/11 05:38:24;;;;;;;5.55;4.95;;;22.00;62.50;;;;;;5064196;28;20032;-67
2023/06/11 05:40:50;;;;;;;5.80;5.03;;;22.10;62.50;;;;;;5081155;28;20048;-67
2023/06/11 05:43:16;;;;;;;5.73;4.97;;;22.20;62.60;;;;;;5055288;28;20233;-67
2023/06/11 05:45:48;;;;;;;5.78;4.82;;;22.20;62.60;;;;;;5066051;28;20713;-67
2023/06/11 05:48:15;;;;;;;5.10;4.60;;;22.30;63.20;;;;;;5078000;28;20103;-68
2023/06/11 05:50:40;;;;;;;5.68;4.95;;;22.30;62.60;;;;;;5078242;28;20407;-67
2023/06/11 05:53:08;;;;;;;5.60;4.77;;;22.40;62.70;;;;;;5065154;28;20039;-67
2023/06/11 05:55:34;;;;;;;5.75;4.90;;;22.40;62.60;;;;;;5081677;28;20035;-67
2023/06/11 05:58:00;;;;;;;6.47;5.20;;;22.50;62.70;;;;;;5055786;28;20028;-67
2023/06/11 06:00:26;;;;;;;6.25;5.47;;;22.60;62.80;;;;;;5082444;28;20111;-67
2023/06/11 06:02:52;;;;;;;5.53;4.90;;;22.60;62.70;;;;;;5072299;27;20224;-67
2023/06/11 06:05:18;;;;;;;6.80;5.15;;;22.70;62.70;;;;;;5082915;28;20032;-67
2023/06/11 06:07:44;;;;;;;6.70;4.80;;;22.70;62.70;;;;;;5055313;28;20039;-66
2023/06/11 06:10:10;;;;;;;6.03;4.77;;;22.80;62.80;;;;;;5086529;28;20114;-67
2023/06/11 06:12:35;;;;;;;5.85;4.93;;;22.90;63.00;;;;;;5056960;28;20491;-67
2023/06/11 06:15:01;;;;;;;5.50;4.70;;;23.00;62.90;;;;;;5077023;28;20035;-67
2023/06/11 06:17:27;;;;;;;6.00;5.10;;;23.20;62.90;;;;;;5065636;28;20020;-67
2023/06/11 06:19:52;;;;;;;5.33;4.77;;;23.20;62.80;;;;;;5080892;28;20992;-67
2023/06/11 06:22:18;;;;;;;5.65;4.80;;;23.30;62.80;;;;;;5075936;28;20035;-68
2023/06/11 06:24:44;;;;;;;5.70;4.60;;;23.40;62.80;;;;;;5063263;28;20716;-67
2023/06/11 06:27:10;;;;;;;6.85;5.30;;;23.50;62.80;;;;;;5059096;28;20031;-68
2023/06/11 06:29:38;;;;;;;7.40;4.97;;;23.60;62.60;;;;;;5079590;28;20525;-67
2023/06/11 06:32:05;;;;;;;5.35;4.75;;;23.70;62.60;;;;;;5067009;28;20024;-67
2023/06/11 06:34:31;;;;;;;5.87;4.97;;;23.70;62.60;;;;;;5078210;28;20058;-67
2023/06/11 06:36:57;;;;;;;5.88;5.10;;;23.90;62.60;;;;;;5085619;27;20024;-68
2023/06/11 06:39:22;;;;;;;5.63;4.80;;;23.90;62.60;;;;;;5071348;28;20023;-67
2023/06/11 06:41:48;;;;;;;5.72;4.78;;;24.00;62.40;;;;;;5082843;28;20034;-67
2023/06/11 06:44:14;;;;;;;5.27;4.77;;;24.10;62.40;;;;;;5036759;28;20248;-66
2023/06/11 06:46:39;;;;;;;5.53;4.32;;;24.20;62.40;;;;;;5084151;28;20056;-67
2023/06/11 06:49:05;;;;;;;6.60;4.97;;;24.30;62.40;;;;;;5066045;28;20039;-67
2023/06/11 06:51:32;;;;;;;7.13;4.87;;;24.40;62.20;;;;;;5073809;28;20032;-67
2023/06/11 06:53:58;;;;;;;6.18;4.30;;;24.50;62.10;;;;;;5082567;28;20036;-67
2023/06/11 06:56:24;;;;;;;5.45;4.95;;;24.60;62.10;;;;;;5055378;28;20035;-67
2023/06/11 06:58:50;;;;;;;5.27;4.77;;;24.70;62.00;;;;;;5057991;28;20039;-67
2023/06/11 07:01:16;;;;;;;5.03;4.53;;;24.80;62.10;;;;;;5079418;28;20051;-67
2023/06/11 07:03:42;;;;;;;5.40;4.90;;;24.90;62.00;;;;;;5061261;28;20076;-67
2023/06/11 07:06:08;;;;;;;5.20;4.70;;;25.00;61.80;;;;;;5085511;28;20077;-68
2023/06/11 07:08:34;;;;;;;4.75;4.25;;;25.10;61.80;;;;;;5081433;28;20064;-67
2023/06/11 07:11:00;;;;;;;4.82;4.30;;;25.20;61.70;;;;;;5062054;28;20441;-67
2023/06/11 07:13:25;;;;;;;5.13;4.63;;;25.30;61.70;;;;;;5048886;28;20050;-67
2023/06/11 07:15:51;;;;;;;5.67;4.90;;;25.40;61.70;;;;;;5060323;28;20446;-67
2023/06/11 07:18:17;;;;;;;5.50;4.65;;;25.60;61.70;;;;;;5083995;28;20063;-67
2023/06/11 07:20:44;;;;;;;5.13;4.63;;;25.60;61.60;;;;;;5062615;28;20690;-67
2023/06/11 07:23:10;;;;;;;4.90;4.40;;;25.80;61.70;;;;;;5069313;28;20027;-68
2023/06/11 07:25:37;;;;;;;5.33;4.80;;;25.90;61.40;;;;;;5067786;28;20540;-67
2023/06/11 07:28:05;;;;;;;5.80;5.00;;;26.00;61.30;;;;;;5072201;28;20024;-67
2023/06/11 07:30:32;;;;;;;4.97;4.47;;;26.10;61.30;;;;;;5038629;28;20635;-67
2023/06/11 07:32:59;;;;;;;4.97;4.47;;;26.20;61.10;;;;;;5082429;28;20024;-66
2023/06/11 07:35:26;;;;;;;4.80;4.35;;;26.30;61.00;;;;;;5056388;28;20155;-67
2023/06/11 07:37:52;;;;;;;5.07;4.30;;;26.50;61.10;;;;;;5073867;28;20036;-67
2023/06/11 07:40:18;;;;;;;4.78;4.18;;;26.60;61.00;;;;;;5063735;28;20024;-67
2023/06/11 07:42:45;;;;;;;4.40;4.00;;;26.70;61.00;;;;;;5062404;28;20440;-68
2023/06/11 07:45:11;;;;;;;5.65;4.20;;;26.80;61.00;;;;;;5054649;28;20514;-67
2023/06/11 07:47:41;;;;;;;4.80;4.30;;;26.90;61.00;;;;;;5074598;28;20670;-68
2023/06/11 07:50:08;;;;;;;5.13;4.30;;;27.10;60.80;;;;;;5061915;28;20216;-67
2023/06/11 07:52:34;;;;;;;5.00;3.78;;;27.20;60.40;;;;;;5070807;28;20639;-67
2023/06/11 07:55:00;;;;;;;4.78;4.13;;;27.40;60.40;;;;;;5074267;28;20032;-67
2023/06/11 07:57:25;;;;;;;4.95;3.83;;;27.50;60.10;;;;;;5062857;28;20691;-66
2023/06/11 07:59:52;;;;;;;4.80;4.30;;;27.60;60.30;;;;;;5075140;28;20038;-65
2023/06/11 08:02:18;;;;;;;4.50;4.10;;;27.80;60.60;;;;;;5057159;28;20047;-66
2023/06/11 08:04:44;;;;;;;3.93;3.53;;;28.10;60.80;;;;;;5079999;28;20036;-66
2023/06/11 08:07:10;;;;;;;4.27;3.70;;;28.40;61.00;;;;;;5066666;28;20292;-65
2023/06/11 08:09:36;;;;;;;4.55;4.15;;;28.70;60.80;;;;;;5066319;28;20039;-66
2023/06/11 08:12:07;;;;;;;4.38;3.90;;;29.00;60.40;;;;;;5063947;27;20512;-64
2023/06/11 08:14:33;;;;;;;4.20;3.70;;;29.40;60.00;;;;;;5070953;28;20020;-67
2023/06/11 08:16:59;;;;;;;4.07;3.67;;;29.70;60.50;;;;;;5057490;28;20056;-65
2023/06/11 08:19:25;;;;;;;4.35;3.95;;;30.00;60.60;;;;;;5077736;28;20016;-66
2023/06/11 08:21:51;;;;;;;4.10;3.70;;;30.50;60.60;;;;;;5057633;28;20612;-67
2023/06/11 08:24:18;;;;;;;4.40;4.00;;;30.90;60.30;;;;;;5076282;28;20649;-67
2023/06/11 08:26:44;;;;;;;4.23;3.83;;;31.40;60.00;;;;;;5049991;28;20862;-67
2023/06/11 08:29:10;;;;;;;4.25;3.85;;;31.90;59.40;;;;;;5067830;28;20020;-66
2023/06/11 08:31:37;;;;;;;4.20;3.80;;;32.40;59.10;;;;;;5058220;28;20050;-67
2023/06/11 08:34:02;;;;;;;3.83;3.53;;;32.90;58.40;;;;;;5077299;28;20073;-66
2023/06/11 08:36:28;;;;;;;4.53;3.88;;;33.30;57.70;;;;;;5057095;28;21440;-66
2023/06/11 08:38:54;;;;;;;5.53;4.13;;;33.70;56.90;;;;;;5074265;28;20032;-68
2023/06/11 08:41:20;;;;;;;4.70;4.17;;;34.10;56.00;;;;;;5080048;27;20123;-66
2023/06/11 08:43:46;;;;;;;3.95;3.55;;;34.40;55.10;;;;;;5050888;28;20142;-66
2023/06/11 08:46:16;;;;;;;4.35;3.95;;;34.80;54.80;;;;;;5061426;28;20032;-67
2023/06/11 08:48:43;;;;;;;4.17;3.87;;;35.20;53.30;;;;;;5043887;28;20419;-67
2023/06/11 08:51:11;;;;;;;4.22;3.83;;;35.50;53.40;;;;;;5043687;28;20173;-66
2023/06/11 08:53:38;;;;;;;4.20;3.80;;;35.80;52.30;;;;;;5052674;28;20082;-68
2023/06/11 08:56:06;;;;;;;4.18;3.78;;;36.10;51.60;;;;;;5082223;28;20036;-66
2023/06/11 08:58:34;;;;;;;4.78;4.38;;;36.30;50.40;;;;;;5061417;27;20330;-68
2023/06/11 09:01:11;;;;;;;3.87;3.57;;;36.50;50.00;;;;;;5062607;28;20027;-66
2023/06/11 09:03:38;;;;;;;4.28;3.88;;;36.80;48.10;;;;;;5050978;27;20111;-67
2023/06/11 09:06:05;;;;;;;4.25;3.95;;;37.00;49.30;;;;;;5082129;27;20506;-66
2023/06/11 09:08:31;;;;;;;4.60;4.20;;;37.10;49.00;;;;;;5058344;28;20024;-67
2023/06/11 09:10:57;;;;;;;3.97;3.58;;;37.40;48.40;;;;;;5082373;27;20028;-66
2023/06/11 09:13:27;;;;;;;3.90;3.60;;;37.50;47.80;;;;;;5043777;27;20076;-68
2023/06/11 09:15:57;;;;;;;4.00;3.60;;;37.70;46.50;;;;;;5067136;28;20028;-67
2023/06/11 09:18:25;;;;;;;4.57;4.18;;;37.90;46.70;;;;;;5054965;27;20124;-67
2023/06/11 09:20:55;;;;;;;4.88;4.47;;;38.20;46.50;;;;;;5079667;28;20478;-66
2023/06/11 09:23:31;;;;;;;5.10;4.38;;;38.30;46.20;;;;;;5081259;27;20032;-67
2023/06/11 09:26:01;;;;;;;4.07;3.77;;;38.50;44.30;;;;;;5051583;28;20148;-48
2023/06/11 09:28:36;;;;;;;4.55;4.15;;;38.70;44.50;;;;;;5072927;28;20110;-60
2023/06/11 09:31:04;;;;;;;4.20;3.90;;;38.80;43.10;;;;;;5073717;28;20047;-60
2023/06/11 09:33:31;;;;;;;4.88;4.47;;;39.00;44.30;;;;;;5069023;28;20162;-60
2023/06/11 09:35:58;;;;;;;4.53;4.13;;;39.10;44.40;;;;;;5057949;27;20406;-60
2023/06/11 09:38:24;;;;;;;4.20;3.90;;;39.30;43.50;;;;;;5078822;27;20387;-60
2023/06/11 09:40:53;;;;;;;4.35;3.97;;;39.50;43.20;;;;;;5044039;28;20027;-60
2023/06/11 09:43:23;;;;;;;4.63;4.28;;;39.60;42.60;;;;;;5072311;28;20004;-59
2023/06/11 09:45:52;;;;;;;4.03;3.70;;;39.70;42.20;;;;;;5063124;28;20115;-60
2023/06/11 09:48:22;;;;;;;4.32;3.70;;;39.80;41.70;;;;;;5071237;28;20035;-60
2023/06/11 09:50:50;;;;;;;3.67;3.37;;;39.90;41.20;;;;;;5055896;28;20039;-60
2023/06/11 09:53:19;;;;;;;4.30;3.88;;;40.00;41.70;;;;;;5081401;28;21078;-60
2023/06/11 09:55:51;;;;;;;4.32;4.03;;;40.10;41.00;;;;;;5059494;28;20412;-60
2023/06/11 09:58:21;;;;;;;4.47;4.07;;;40.20;40.40;;;;;;5065780;28;20020;-60
2023/06/11 10:00:48;;;;;;;4.63;4.22;;;40.30;41.20;;;;;;5048178;28;20418;-60
2023/06/11 10:03:14;;;;;;;4.20;3.90;;;40.40;40.40;;;;;;5053636;27;20026;-60
2023/06/11 10:05:39;;;;;;;4.25;3.88;;;40.40;39.80;;;;;;5049285;27;20032;-60
2023/06/11 10:08:13;;;;;;;4.55;4.25;;;40.60;40.00;;;;;;5051503;28;20032;-59
2023/06/11 10:10:41;;;;;;;3.60;3.30;;;40.60;38.90;;;;;;5074082;27;20042;-60
2023/06/11 10:13:08;;;;;;;4.25;3.85;;;40.70;39.60;;;;;;5057431;28;20034;-60
2023/06/11 10:15:36;;;;;;;4.10;3.70;;;40.80;39.00;;;;;;5059620;28;20302;-59
2023/06/11 10:18:11;;;;;;;4.63;4.22;;;41.00;38.60;;;;;;5065757;28;20032;-60
2023/06/11 10:20:49;;;;;;;4.43;4.13;;;41.00;38.20;;;;;;5044549;28;20027;-60
2023/06/11 10:23:15;;;;;;;4.67;4.27;;;41.10;38.50;;;;;;5059316;28;20617;-60
2023/06/11 10:25:41;;;;;;;3.90;3.60;;;41.20;38.30;;;;;;5068278;28;20073;-60
2023/06/11 10:28:09;;;;;;;4.80;4.40;;;41.30;38.00;;;;;;5050195;28;20051;-59
2023/06/11 10:30:35;;;;;;;4.13;3.72;;;41.40;37.80;;;;;;5056287;28;20044;-60
2023/06/11 10:33:01;;;;;;;4.00;3.70;;;41.50;37.30;;;;;;5074146;28;20474;-59
2023/06/11 10:35:32;;;;;;;3.88;3.58;;;41.60;37.40;;;;;;5047196;28;20705;-59
2023/06/11 10:38:12;;;;;;;4.22;3.92;;;41.60;36.90;;;;;;5083843;28;20071;-59
2023/06/11 10:40:39;;;;;;;4.50;4.20;;;41.60;35.80;;;;;;5082357;28;20107;-60
2023/06/11 10:43:20;;;;;;;4.00;3.70;;;41.70;37.40;;;;;;5062836;28;20036;-60
2023/06/11 10:45:59;;;;;;;4.38;4.07;;;41.70;35.90;;;;;;5076174;28;20043;-59
2023/06/11 10:48:29;;;;;;;4.53;4.13;;;41.70;36.20;;;;;;5072159;28;20119;-59
2023/06/11 10:51:00;;;;;;;4.25;3.95;;;41.70;36.00;;;;;;5043762;28;20038;-60
2023/06/11 10:53:36;;;;;;;4.23;3.90;;;41.80;35.50;;;;;;5078299;28;20035;-60
2023/06/11 10:56:02;;;;;;;4.47;4.13;;;41.90;35.40;;;;;;5076608;28;20048;-60
2023/06/11 10:58:29;;;;;;;4.00;3.70;;;41.80;35.20;;;;;;5068804;28;20128;-59
2023/06/11 11:00:55;;;;;;;4.47;4.07;;;41.80;35.30;;;;;;5064389;28;20035;-59
2023/06/11 11:03:21;;;;;;;4.40;4.00;;;41.80;34.70;;;;;;5067979;28;20652;-59
2023/06/11 11:05:50;;;;;;;4.50;4.10;;;41.80;34.20;;;;;;5064934;28;20418;-58
2023/06/11 11:08:16;;;;;;;4.20;3.90;;;41.70;34.50;;;;;;5082212;28;20558;-59
2023/06/11 11:10:42;;;;;;;4.60;4.20;;;41.70;34.90;;;;;;5082187;28;20055;-58
2023/06/11 11:13:08;;;;;;;3.92;3.60;;;41.70;34.90;;;;;;5050248;28;20027;-59
2023/06/11 11:15:34;;;;;;;4.33;3.93;;;41.80;34.80;;;;;;5041535;28;20032;-58
2023/06/11 11:18:01;;;;;;;4.18;3.78;;;41.70;34.70;;;;;;5058382;28;20028;-60
2023/06/11 11:20:26;;;;;;;4.38;4.07;;;41.90;34.90;;;;;;5043782;28;20503;-59
2023/06/11 11:22:54;;;;;;;4.17;3.87;;;41.90;34.30;;;;;;5087401;27;20028;-59
2023/06/11 11:25:30;;;;;;;4.75;4.20;;;42.00;34.20;;;;;;5069497;27;20521;-60
2023/06/11 11:27:56;;;;;;;4.07;3.78;;;42.00;33.30;;;;;;5070143;27;20093;-58
2023/06/11 11:30:24;;;;;;;4.53;4.13;;;42.00;34.10;;;;;;5084672;27;20418;-59
2023/06/11 11:32:52;;;;;;;4.25;3.95;;;42.20;34.00;;;;;;5080803;27;20028;-59
2023/06/11 11:35:18;;;;;;;4.07;3.77;;;42.30;33.60;;;;;;5028792;27;20114;-59
2023/06/11 11:37:50;;;;;;;4.28;3.97;;;42.40;33.60;;;;;;5076331;27;20024;-60
2023/06/11 11:40:21;;;;;;;4.68;4.22;;;42.60;32.90;;;;;;5075126;27;21156;-59
2023/06/11 11:42:57;;;;;;;5.18;4.00;;;42.70;32.80;;;;;;5079475;27;20028;-58
2023/06/11 11:45:33;;;;;;;3.97;3.67;;;42.70;31.80;;;;;;5071676;27;20032;-59
2023/06/11 11:48:01;;;;;;;4.60;4.20;;;42.70;32.10;;;;;;5070529;27;20073;-61
2023/06/11 11:50:32;;;;;;;3.97;3.67;;;42.70;32.30;;;;;;5045184;27;20042;-60
2023/06/11 11:53:06;;;;;;;3.42;3.20;;;42.70;32.10;;;;;;5066175;27;20050;-60
2023/06/11 11:55:43;;;;;;;4.72;4.28;;;42.90;32.30;;;;;;5083415;28;20395;-60
2023/06/11 11:58:11;;;;;;;4.47;4.13;;;42.90;32.40;;;;;;5067234;27;20101;-60
2023/06/11 12:00:52;;;;;;;4.63;4.23;;;43.00;32.30;;;;;;5088919;27;20479;-60
2023/06/11 12:03:19;;;;;;;4.63;4.22;;;43.00;31.30;;;;;;5077269;27;20140;-60
2023/06/11 12:05:59;;;;;;;4.70;4.30;;;43.00;32.10;;;;;;5047862;28;20031;-60
2023/06/11 12:08:26;;;;;;;3.80;3.50;;;42.90;31.50;;;;;;5056577;28;20065;-61
2023/06/11 12:10:51;;;;;;;4.22;3.92;;;43.00;32.40;;;;;;5082517;28;20038;-61
2023/06/11 12:13:18;;;;;;;4.40;4.10;;;43.10;32.20;;;;;;5077722;27;20047;-60
2023/06/11 12:15:44;;;;;;;4.70;4.40;;;43.10;31.60;;;;;;5067879;27;20019;-60
2023/06/11 12:18:10;;;;;;;4.47;4.18;;;43.30;31.50;;;;;;5059232;27;20636;-61
2023/06/11 12:20:36;;;;;;;4.73;4.33;;;43.40;31.00;;;;;;5067186;27;22062;-60
2023/06/11 12:23:02;;;;;;;4.70;4.25;;;43.50;30.70;;;;;;5040695;27;20034;-60
2023/06/11 12:25:30;;;;;;;3.50;3.20;;;43.40;30.40;;;;;;5081197;28;20043;-60
2023/06/11 12:27:55;;;;;;;3.80;3.50;;;43.40;30.00;;;;;;5079897;28;20019;-60
2023/06/11 12:30:21;;;;;;;4.03;3.67;;;43.30;30.00;;;;;;5064415;28;20714;-60
2023/06/11 12:32:48;;;;;;;4.57;4.28;;;43.30;30.20;;;;;;5062268;28;20024;-59
2023/06/11 12:35:13;;;;;;;4.00;3.70;;;43.30;30.40;;;;;;5050308;28;21352;-60
2023/06/11 12:37:40;;;;;;;4.73;4.43;;;43.30;30.40;;;;;;5071090;28;20032;-59
2023/06/11 12:40:06;;;;;;;4.00;3.70;;;43.30;30.90;;;;;;5049049;28;20028;-60
2023/06/11 12:42:33;;;;;;;4.70;4.32;;;43.40;30.30;;;;;;5088534;28;20059;-60
2023/06/11 12:45:00;;;;;;;3.50;3.20;;;43.50;30.00;;;;;;5085250;28;20071;-59
2023/06/11 12:47:26;;;;;;;3.50;3.20;;;43.40;29.40;;;;;;5068186;28;20027;-60
2023/06/11 12:49:52;;;;;;;3.63;3.33;;;43.20;29.50;;;;;;5062368;28;20595;-59